sensor_id;sensor_type;location;lat;lon;timestamp;temperature;humidity
73477;DHT22;61713;51.034;13.756;2022-07-10T00:02:10;14.80;99.90
73477;DHT22;61713;51.034;13.756;2022-07-10T00:04:36;14.90;99.90
73477;DHT22;61713;51.034;13.756;2022-07-10T00:07:02;14.80;99.90
73477;DHT22;61713;51.034;13.756;2022-07-10T00:09:29;14.70;99.90
73477;DHT22;61713;51.034;13.756;2022-07-10T00:11:54;14.80;99.90
73477;DHT22;61713;51.034;13.756;2022-07-10T00:14:20;14.80;99.90
73477;DHT22;61713;51.034;13.756;2022-07-10T00:16:46;14.70;99.90
73477;DHT22;61713;51.034;13.756;2022-07-10T00:19:11;14.70;99.90
73477;DHT22;61713;51.034;13.756;2022-07-10T00:21:37;14.70;99.90
73477;DHT22;61713;51.034;13.756;2022-07-10T00:24:03;14.60;99.90
73477;DHT22;61713;51.034;13.756;2022-07-10T00:26:28;14.60;99.90
73477;DHT22;61713;51.034;13.756;2022-07-10T00:28:54;14.60;99.90
73477;DHT22;61713;51.034;13.756;2022-07-10T00:31:20;14.50;99.90
73477;DHT22;61713;51.034;13.756;2022-07-10T00:33:46;14.50;99.90
73477;DHT22;61713;51.034;13.756;2022-07-10T00:36:11;14.40;99.90
73477;DHT22;61713;51.034;13.756;2022-07-10T00:38:37;14.30;99.90
73477;DHT22;61713;51.034;13.756;2022-07-10T00:41:02;14.30;99.90
73477;DHT22;61713;51.034;13.756;2022-07-10T00:43:28;14.30;99.90
73477;DHT22;61713;51.034;13.756;2022-07-10T00:45:53;14.20;99.90
73477;DHT22;61713;51.034;13.756;2022-07-10T00:48:19;14.30;99.90
73477;DHT22;61713;51.034;13.756;2022-07-10T00:50:45;14.30;99.90
73477;DHT22;61713;51.034;13.756;2022-07-10T00:53:12;14.30;99.90
73477;DHT22;61713;51.034;13.756;2022-07-10T00:55:39;14.30;99.90
73477;DHT22;61713;51.034;13.756;2022-07-10T00:58:08;14.30;99.90
73477;DHT22;61713;51.034;13.756;2022-07-10T01:00:35;14.30;99.90
73477;DHT22;61713;51.034;13.756;2022-07-10T01:03:03;14.40;99.90
73477;DHT22;61713;51.034;13.756;2022-07-10T01:05:29;14.40;99.90
73477;DHT22;61713;51.034;13.756;2022-07-10T01:07:54;14.40;99.90
73477;DHT22;61713;51.034;13.756;2022-07-10T01:10:20;14.40;99.90
73477;DHT22;61713;51.034;13.756;2022-07-10T01:12:46;14.40;99.90
73477;DHT22;61713;51.034;13.756;2022-07-10T01:15:12;14.40;99.90
73477;DHT22;61713;51.034;13.756;2022-07-10T01:17:37;14.40;99.90
73477;DHT22;61713;51.034;13.756;2022-07-10T01:20:07;14.40;99.90
73477;DHT22;61713;51.034;13.756;2022-07-10T01:22:33;14.40;99.90
73477;DHT22;61713;51.034;13.756;2022-07-10T01:24:58;14.40;99.90
73477;DHT22;61713;51.034;13.756;2022-07-10T01:27:24;14.40;99.90
73477;DHT22;61713;51.034;13.756;2022-07-10T01:29:49;14.30;99.90
73477;DHT22;61713;51.034;13.756;2022-07-10T01:32:16;14.50;99.90
73477;DHT22;61713;51.034;13.756;2022-07-10T01:34:42;14.50;99.90
73477;DHT22;61713;51.034;13.756;2022-07-10T01:37:07;14.40;99.90
73477;DHT22;61713;51.034;13.756;2022-07-10T01:39:33;14.40;99.90
73477;DHT22;61713;51.034;13.756;2022-07-10T01:41:58;14.40;99.90
73477;DHT22;61713;51.034;13.756;2022-07-10T01:44:24;14.40;99.90
73477;DHT22;61713;51.034;13.756;2022-07-10T01:46:49;14.40;99.90
73477;DHT22;61713;51.034;13.756;2022-07-10T01:49:15;14.30;99.90
73477;DHT22;61713;51.034;13.756;2022-07-10T01:51:40;14.30;99.90
73477;DHT22;61713;51.034;13.756;2022-07-10T01:54:07;14.40;99.90
73477;DHT22;61713;51.034;13.756;2022-07-10T01:56:32;14.40;99.90
73477;DHT22;61713;51.034;13.756;2022-07-10T01:58:58;14.30;99.90
73477;DHT22;61713;51.034;13.756;2022-07-10T02:01:25;14.30;99.90
73477;DHT22;61713;51.034;13.756;2022-07-10T02:03:50;14.30;99.90
73477;DHT22;61713;51.034;13.756;2022-07-10T02:06:34;14.30;99.90
73477;DHT22;61713;51.034;13.756;2022-07-10T02:09:00;14.30;99.90
73477;DHT22;61713;51.034;13.756;2022-07-10T02:11:25;14.40;99.90
73477;DHT22;61713;51.034;13.756;2022-07-10T02:13:51;14.30;99.90
73477;DHT22;61713;51.034;13.756;2022-07-10T02:16:16;14.30;99.90
73477;DHT22;61713;51.034;13.756;2022-07-10T02:18:42;14.30;99.90
73477;DHT22;61713;51.034;13.756;2022-07-10T02:21:08;14.30;99.90
73477;DHT22;61713;51.034;13.756;2022-07-10T02:23:34;14.30;99.90
73477;DHT22;61713;51.034;13.756;2022-07-10T02:26:00;14.30;99.90
73477;DHT22;61713;51.034;13.756;2022-07-10T02:28:25;14.30;99.90
73477;DHT22;61713;51.034;13.756;2022-07-10T02:30:51;14.30;99.90
73477;DHT22;61713;51.034;13.756;2022-07-10T02:33:16;14.30;99.90
73477;DHT22;61713;51.034;13.756;2022-07-10T02:35:42;14.20;99.90
73477;DHT22;61713;51.034;13.756;2022-07-10T02:38:07;14.20;99.90
73477;DHT22;61713;51.034;13.756;2022-07-10T02:40:32;14.20;99.90
73477;DHT22;61713;51.034;13.756;2022-07-10T02:42:58;14.20;99.90
73477;DHT22;61713;51.034;13.756;2022-07-10T02:45:23;14.20;99.90
73477;DHT22;61713;51.034;13.756;2022-07-10T02:47:49;14.20;99.90
73477;DHT22;61713;51.034;13.756;2022-07-10T02:50:14;14.20;99.90
73477;DHT22;61713;51.034;13.756;2022-07-10T02:52:40;14.20;99.90
73477;DHT22;61713;51.034;13.756;2022-07-10T02:55:06;14.20;99.90
73477;DHT22;61713;51.034;13.756;2022-07-10T02:57:31;14.20;99.90
73477;DHT22;61713;51.034;13.756;2022-07-10T02:59:57;14.20;99.90
73477;DHT22;61713;51.034;13.756;2022-07-10T03:02:22;14.20;99.90
73477;DHT22;61713;51.034;13.756;2022-07-10T03:04:47;14.10;99.90
73477;DHT22;61713;51.034;13.756;2022-07-10T03:07:13;14.10;99.90
73477;DHT22;61713;51.034;13.756;2022-07-10T03:09:38;14.10;99.90
73477;DHT22;61713;51.034;13.756;2022-07-10T03:12:04;14.10;99.90
73477;DHT22;61713;51.034;13.756;2022-07-10T03:14:30;14.10;99.90
73477;DHT22;61713;51.034;13.756;2022-07-10T03:16:56;14.00;99.90
73477;DHT22;61713;51.034;13.756;2022-07-10T03:19:21;14.10;99.90
73477;DHT22;61713;51.034;13.756;2022-07-10T03:21:47;14.00;99.90
73477;DHT22;61713;51.034;13.756;2022-07-10T03:24:12;14.10;99.90
73477;DHT22;61713;51.034;13.756;2022-07-10T03:26:38;14.00;99.90
73477;DHT22;61713;51.034;13.756;2022-07-10T03:29:04;14.00;99.90
73477;DHT22;61713;51.034;13.756;2022-07-10T03:31:29;14.00;99.90
73477;DHT22;61713;51.034;13.756;2022-07-10T03:33:55;14.00;99.90
73477;DHT22;61713;51.034;13.756;2022-07-10T03:36:20;14.10;99.90
73477;DHT22;61713;51.034;13.756;2022-07-10T03:38:46;13.90;99.90
73477;DHT22;61713;51.034;13.756;2022-07-10T03:41:12;14.00;99.90
73477;DHT22;61713;51.034;13.756;2022-07-10T03:43:38;14.00;99.90
73477;DHT22;61713;51.034;13.756;2022-07-10T03:46:04;14.00;99.90
73477;DHT22;61713;51.034;13.756;2022-07-10T03:48:29;14.00;99.90
73477;DHT22;61713;51.034;13.756;2022-07-10T03:50:54;14.00;99.90
73477;DHT22;61713;51.034;13.756;2022-07-10T03:53:20;14.00;99.90
73477;DHT22;61713;51.034;13.756;2022-07-10T03:55:46;14.00;99.90
73477;DHT22;61713;51.034;13.756;2022-07-10T03:58:11;14.10;99.90
73477;DHT22;61713;51.034;13.756;2022-07-10T04:00:37;14.00;99.90
73477;DHT22;61713;51.034;13.756;2022-07-10T04:03:04;14.00;99.90
73477;DHT22;61713;51.034;13.756;2022-07-10T04:05:30;14.00;99.90
73477;DHT22;61713;51.034;13.756;2022-07-10T04:07:57;14.00;99.90
73477;DHT22;61713;51.034;13.756;2022-07-10T04:10:23;14.00;99.90
73477;DHT22;61713;51.034;13.756;2022-07-10T04:12:49;14.00;99.90
73477;DHT22;61713;51.034;13.756;2022-07-10T04:15:15;14.00;99.90
73477;DHT22;61713;51.034;13.756;2022-07-10T04:17:41;14.00;99.90
73477;DHT22;61713;51.034;13.756;2022-07-10T04:20:07;14.00;99.90
73477;DHT22;61713;51.034;13.756;2022-07-10T04:22:33;14.10;99.90
73477;DHT22;61713;51.034;13.756;2022-07-10T04:24:59;14.10;99.90
73477;DHT22;61713;51.034;13.756;2022-07-10T04:27:24;14.10;99.90
73477;DHT22;61713;51.034;13.756;2022-07-10T04:29:50;14.10;99.90
73477;DHT22;61713;51.034;13.756;2022-07-10T04:32:16;14.20;99.90
73477;DHT22;61713;51.034;13.756;2022-07-10T04:34:42;14.20;99.90
73477;DHT22;61713;51.034;13.756;2022-07-10T04:37:07;14.10;99.90
73477;DHT22;61713;51.034;13.756;2022-07-10T04:39:34;14.10;99.90
73477;DHT22;61713;51.034;13.756;2022-07-10T04:42:00;14.00;99.90
73477;DHT22;61713;51.034;13.756;2022-07-10T04:44:26;14.10;99.90
73477;DHT22;61713;51.034;13.756;2022-07-10T04:46:52;14.20;99.90
73477;DHT22;61713;51.034;13.756;2022-07-10T04:49:17;14.30;99.90
73477;DHT22;61713;51.034;13.756;2022-07-10T04:51:42;14.30;99.90
73477;DHT22;61713;51.034;13.756;2022-07-10T04:54:08;14.20;99.90
73477;DHT22;61713;51.034;13.756;2022-07-10T04:56:33;14.30;99.90
73477;DHT22;61713;51.034;13.756;2022-07-10T04:58:59;14.40;99.90
73477;DHT22;61713;51.034;13.756;2022-07-10T05:01:24;14.30;99.90
73477;DHT22;61713;51.034;13.756;2022-07-10T05:03:50;14.50;99.90
73477;DHT22;61713;51.034;13.756;2022-07-10T05:06:15;14.50;99.90
73477;DHT22;61713;51.034;13.756;2022-07-10T05:08:41;14.40;99.90
73477;DHT22;61713;51.034;13.756;2022-07-10T05:11:06;14.50;99.90
73477;DHT22;61713;51.034;13.756;2022-07-10T05:13:32;14.60;99.90
73477;DHT22;61713;51.034;13.756;2022-07-10T05:15:57;14.60;99.90
73477;DHT22;61713;51.034;13.756;2022-07-10T05:18:23;14.60;99.90
73477;DHT22;61713;51.034;13.756;2022-07-10T05:20:48;14.50;99.90
73477;DHT22;61713;51.034;13.756;2022-07-10T05:23:15;14.60;99.90
73477;DHT22;61713;51.034;13.756;2022-07-10T05:25:41;14.70;99.90
73477;DHT22;61713;51.034;13.756;2022-07-10T05:28:06;14.60;99.90
73477;DHT22;61713;51.034;13.756;2022-07-10T05:30:32;14.50;99.90
73477;DHT22;61713;51.034;13.756;2022-07-10T05:32:58;14.50;99.90
73477;DHT22;61713;51.034;13.756;2022-07-10T05:35:23;14.60;99.90
73477;DHT22;61713;51.034;13.756;2022-07-10T05:37:49;14.80;99.90
73477;DHT22;61713;51.034;13.756;2022-07-10T05:40:14;14.80;99.90
73477;DHT22;61713;51.034;13.756;2022-07-10T05:42:40;14.80;99.90
73477;DHT22;61713;51.034;13.756;2022-07-10T05:45:06;14.80;99.90
73477;DHT22;61713;51.034;13.756;2022-07-10T05:47:32;14.50;99.90
73477;DHT22;61713;51.034;13.756;2022-07-10T05:49:59;14.60;99.90
73477;DHT22;61713;51.034;13.756;2022-07-10T05:52:24;14.50;99.90
73477;DHT22;61713;51.034;13.756;2022-07-10T05:54:50;14.60;99.90
73477;DHT22;61713;51.034;13.756;2022-07-10T05:57:16;14.50;99.90
73477;DHT22;61713;51.034;13.756;2022-07-10T05:59:42;14.50;99.90
73477;DHT22;61713;51.034;13.756;2022-07-10T06:02:07;14.60;99.90
73477;DHT22;61713;51.034;13.756;2022-07-10T06:04:33;14.40;99.90
73477;DHT22;61713;51.034;13.756;2022-07-10T06:06:59;14.30;99.90
73477;DHT22;61713;51.034;13.756;2022-07-10T06:09:24;14.20;99.90
73477;DHT22;61713;51.034;13.756;2022-07-10T06:11:50;14.30;99.90
73477;DHT22;61713;51.034;13.756;2022-07-10T06:14:15;14.10;99.90
73477;DHT22;61713;51.034;13.756;2022-07-10T06:16:41;14.00;99.90
73477;DHT22;61713;51.034;13.756;2022-07-10T06:19:06;14.00;99.90
73477;DHT22;61713;51.034;13.756;2022-07-10T06:21:32;14.20;99.90
73477;DHT22;61713;51.034;13.756;2022-07-10T06:23:58;14.20;99.90
73477;DHT22;61713;51.034;13.756;2022-07-10T06:26:24;14.30;99.90
73477;DHT22;61713;51.034;13.756;2022-07-10T06:28:49;14.50;99.90
73477;DHT22;61713;51.034;13.756;2022-07-10T06:31:15;14.60;99.90
73477;DHT22;61713;51.034;13.756;2022-07-10T06:33:40;14.50;99.90
73477;DHT22;61713;51.034;13.756;2022-07-10T06:36:06;14.80;99.90
73477;DHT22;61713;51.034;13.756;2022-07-10T06:38:32;14.60;99.90
73477;DHT22;61713;51.034;13.756;2022-07-10T06:40:57;14.50;99.90
73477;DHT22;61713;51.034;13.756;2022-07-10T06:43:23;14.60;99.90
73477;DHT22;61713;51.034;13.756;2022-07-10T06:45:49;14.50;99.90
73477;DHT22;61713;51.034;13.756;2022-07-10T06:48:15;14.60;99.90
73477;DHT22;61713;51.034;13.756;2022-07-10T06:50:40;14.90;99.90
73477;DHT22;61713;51.034;13.756;2022-07-10T06:53:06;15.00;99.90
73477;DHT22;61713;51.034;13.756;2022-07-10T06:55:32;14.70;99.90
73477;DHT22;61713;51.034;13.756;2022-07-10T06:57:59;14.70;99.90
73477;DHT22;61713;51.034;13.756;2022-07-10T07:00:25;14.80;99.90
73477;DHT22;61713;51.034;13.756;2022-07-10T07:02:50;14.70;99.90
73477;DHT22;61713;51.034;13.756;2022-07-10T07:05:16;14.70;99.90
73477;DHT22;61713;51.034;13.756;2022-07-10T07:07:42;14.80;99.90
73477;DHT22;61713;51.034;13.756;2022-07-10T07:10:09;14.40;99.90
73477;DHT22;61713;51.034;13.756;2022-07-10T07:12:35;14.30;99.90
73477;DHT22;61713;51.034;13.756;2022-07-10T07:15:01;14.40;99.90
73477;DHT22;61713;51.034;13.756;2022-07-10T07:17:26;14.20;99.90
73477;DHT22;61713;51.034;13.756;2022-07-10T07:20:00;14.50;99.90
73477;DHT22;61713;51.034;13.756;2022-07-10T07:22:44;14.50;99.90
73477;DHT22;61713;51.034;13.756;2022-07-10T07:25:29;14.50;99.90
73477;DHT22;61713;51.034;13.756;2022-07-10T07:27:54;14.40;99.90
73477;DHT22;61713;51.034;13.756;2022-07-10T07:30:20;14.50;99.90
73477;DHT22;61713;51.034;13.756;2022-07-10T07:32:46;14.40;99.90
73477;DHT22;61713;51.034;13.756;2022-07-10T07:35:15;14.30;99.90
73477;DHT22;61713;51.034;13.756;2022-07-10T07:40:13;14.60;99.90
73477;DHT22;61713;51.034;13.756;2022-07-10T07:42:39;14.60;99.90
73477;DHT22;61713;51.034;13.756;2022-07-10T07:45:05;15.00;99.90
73477;DHT22;61713;51.034;13.756;2022-07-10T07:47:31;15.00;99.90
73477;DHT22;61713;51.034;13.756;2022-07-10T07:50:07;14.80;99.90
73477;DHT22;61713;51.034;13.756;2022-07-10T07:52:32;14.90;99.90
73477;DHT22;61713;51.034;13.756;2022-07-10T07:55:00;14.80;99.90
73477;DHT22;61713;51.034;13.756;2022-07-10T07:57:26;14.90;99.90
73477;DHT22;61713;51.034;13.756;2022-07-10T07:59:51;15.10;99.90
73477;DHT22;61713;51.034;13.756;2022-07-10T08:02:17;15.10;99.90
73477;DHT22;61713;51.034;13.756;2022-07-10T08:04:42;15.30;99.90
73477;DHT22;61713;51.034;13.756;2022-07-10T08:07:08;15.60;99.90
73477;DHT22;61713;51.034;13.756;2022-07-10T08:09:33;15.70;99.90
73477;DHT22;61713;51.034;13.756;2022-07-10T08:12:00;15.60;99.90
73477;DHT22;61713;51.034;13.756;2022-07-10T08:14:25;15.80;99.90
73477;DHT22;61713;51.034;13.756;2022-07-10T08:16:51;16.00;99.90
73477;DHT22;61713;51.034;13.756;2022-07-10T08:19:16;16.20;99.90
73477;DHT22;61713;51.034;13.756;2022-07-10T08:21:42;16.30;99.90
73477;DHT22;61713;51.034;13.756;2022-07-10T08:24:08;15.60;99.90
73477;DHT22;61713;51.034;13.756;2022-07-10T08:26:34;16.10;99.90
73477;DHT22;61713;51.034;13.756;2022-07-10T08:28:59;16.50;99.90
73477;DHT22;61713;51.034;13.756;2022-07-10T08:31:25;16.20;99.90
73477;DHT22;61713;51.034;13.756;2022-07-10T08:33:50;15.90;99.90
73477;DHT22;61713;51.034;13.756;2022-07-10T08:36:17;15.80;99.90
73477;DHT22;61713;51.034;13.756;2022-07-10T08:38:43;16.00;99.90
73477;DHT22;61713;51.034;13.756;2022-07-10T08:41:11;16.20;99.90
73477;DHT22;61713;51.034;13.756;2022-07-10T08:43:38;16.30;99.60
73477;DHT22;61713;51.034;13.756;2022-07-10T08:46:04;15.90;99.90
73477;DHT22;61713;51.034;13.756;2022-07-10T08:48:32;16.40;98.80
73477;DHT22;61713;51.034;13.756;2022-07-10T08:51:04;16.40;99.00
73477;DHT22;61713;51.034;13.756;2022-07-10T08:53:32;16.70;96.90
73477;DHT22;61713;51.034;13.756;2022-07-10T08:55:58;16.70;97.00
73477;DHT22;61713;51.034;13.756;2022-07-10T08:58:24;16.40;96.60
73477;DHT22;61713;51.034;13.756;2022-07-10T09:00:51;16.10;96.20
73477;DHT22;61713;51.034;13.756;2022-07-10T09:03:16;15.90;96.80
73477;DHT22;61713;51.034;13.756;2022-07-10T09:05:41;15.70;96.90
73477;DHT22;61713;51.034;13.756;2022-07-10T09:08:26;15.50;97.30
73477;DHT22;61713;51.034;13.756;2022-07-10T09:11:16;15.50;98.10
73477;DHT22;61713;51.034;13.756;2022-07-10T09:13:49;16.00;97.90
73477;DHT22;61713;51.034;13.756;2022-07-10T09:16:26;16.00;96.40
73477;DHT22;61713;51.034;13.756;2022-07-10T09:18:52;16.00;95.70
73477;DHT22;61713;51.034;13.756;2022-07-10T09:21:18;16.10;94.90
73477;DHT22;61713;51.034;13.756;2022-07-10T09:23:43;16.40;95.00
73477;DHT22;61713;51.034;13.756;2022-07-10T09:26:09;16.50;95.00
73477;DHT22;61713;51.034;13.756;2022-07-10T09:28:34;16.80;94.50
73477;DHT22;61713;51.034;13.756;2022-07-10T09:31:00;16.90;93.80
73477;DHT22;61713;51.034;13.756;2022-07-10T09:33:27;17.10;93.50
73477;DHT22;61713;51.034;13.756;2022-07-10T09:36:03;17.20;93.00
73477;DHT22;61713;51.034;13.756;2022-07-10T09:41:30;17.20;91.50
73477;DHT22;61713;51.034;13.756;2022-07-10T09:44:00;17.20;90.80
73477;DHT22;61713;51.034;13.756;2022-07-10T09:46:37;16.80;89.80
73477;DHT22;61713;51.034;13.756;2022-07-10T09:49:11;16.90;90.50
73477;DHT22;61713;51.034;13.756;2022-07-10T09:54:06;16.80;91.50
73477;DHT22;61713;51.034;13.756;2022-07-10T09:56:41;16.90;91.70
73477;DHT22;61713;51.034;13.756;2022-07-10T09:59:12;16.70;91.60
73477;DHT22;61713;51.034;13.756;2022-07-10T10:01:42;16.60;92.20
73477;DHT22;61713;51.034;13.756;2022-07-10T10:04:08;16.70;91.60
73477;DHT22;61713;51.034;13.756;2022-07-10T10:06:36;16.90;92.00
73477;DHT22;61713;51.034;13.756;2022-07-10T10:11:46;17.10;90.20
73477;DHT22;61713;51.034;13.756;2022-07-10T10:14:12;17.50;87.80
73477;DHT22;61713;51.034;13.756;2022-07-10T10:16:44;17.20;86.00
73477;DHT22;61713;51.034;13.756;2022-07-10T10:19:10;17.60;83.00
73477;DHT22;61713;51.034;13.756;2022-07-10T10:21:55;17.70;81.90
73477;DHT22;61713;51.034;13.756;2022-07-10T10:24:22;17.20;82.70
73477;DHT22;61713;51.034;13.756;2022-07-10T10:26:48;17.40;84.80
73477;DHT22;61713;51.034;13.756;2022-07-10T10:29:14;17.70;81.90
73477;DHT22;61713;51.034;13.756;2022-07-10T10:31:41;17.50;81.00
73477;DHT22;61713;51.034;13.756;2022-07-10T10:34:08;17.10;81.10
73477;DHT22;61713;51.034;13.756;2022-07-10T10:39:08;17.60;81.50
73477;DHT22;61713;51.034;13.756;2022-07-10T10:41:52;17.80;80.90
73477;DHT22;61713;51.034;13.756;2022-07-10T10:47:03;17.30;83.10
73477;DHT22;61713;51.034;13.756;2022-07-10T10:49:51;17.10;83.80
73477;DHT22;61713;51.034;13.756;2022-07-10T10:52:18;17.10;84.00
73477;DHT22;61713;51.034;13.756;2022-07-10T11:00:06;17.40;82.20
73477;DHT22;61713;51.034;13.756;2022-07-10T11:02:37;17.50;81.90
73477;DHT22;61713;51.034;13.756;2022-07-10T11:07:57;17.80;81.80
73477;DHT22;61713;51.034;13.756;2022-07-10T11:10:42;17.50;81.10
73477;DHT22;61713;51.034;13.756;2022-07-10T11:13:09;17.30;81.70
73477;DHT22;61713;51.034;13.756;2022-07-10T11:15:43;17.30;81.30
73477;DHT22;61713;51.034;13.756;2022-07-10T11:18:13;17.40;82.10
73477;DHT22;61713;51.034;13.756;2022-07-10T11:20:42;17.10;82.40
73477;DHT22;61713;51.034;13.756;2022-07-10T11:23:43;17.10;82.60
73477;DHT22;61713;51.034;13.756;2022-07-10T11:26:21;17.30;83.50
73477;DHT22;61713;51.034;13.756;2022-07-10T11:28:52;17.30;83.20
73477;DHT22;61713;51.034;13.756;2022-07-10T11:31:19;17.30;82.80
73477;DHT22;61713;51.034;13.756;2022-07-10T11:33:47;17.30;83.10
73477;DHT22;61713;51.034;13.756;2022-07-10T11:36:17;17.50;83.20
73477;DHT22;61713;51.034;13.756;2022-07-10T11:38:43;17.20;82.40
73477;DHT22;61713;51.034;13.756;2022-07-10T11:41:19;17.40;83.30
73477;DHT22;61713;51.034;13.756;2022-07-10T11:46:20;17.80;81.40
73477;DHT22;61713;51.034;13.756;2022-07-10T11:48:47;18.00;79.80
73477;DHT22;61713;51.034;13.756;2022-07-10T11:51:30;18.60;78.80
73477;DHT22;61713;51.034;13.756;2022-07-10T11:53:58;18.70;78.50
73477;DHT22;61713;51.034;13.756;2022-07-10T11:56:25;19.00;77.70
73477;DHT22;61713;51.034;13.756;2022-07-10T11:59:08;18.70;76.80
73477;DHT22;61713;51.034;13.756;2022-07-10T12:01:35;19.00;76.90
73477;DHT22;61713;51.034;13.756;2022-07-10T12:04:06;18.40;77.80
73477;DHT22;61713;51.034;13.756;2022-07-10T12:06:33;18.20;78.00
73477;DHT22;61713;51.034;13.756;2022-07-10T12:09:07;17.80;79.50
73477;DHT22;61713;51.034;13.756;2022-07-10T12:11:34;17.60;78.60
73477;DHT22;61713;51.034;13.756;2022-07-10T12:16:43;17.30;80.70
73477;DHT22;61713;51.034;13.756;2022-07-10T12:19:15;17.20;82.00
73477;DHT22;61713;51.034;13.756;2022-07-10T12:21:42;17.10;82.60
73477;DHT22;61713;51.034;13.756;2022-07-10T12:24:09;16.90;84.30
73477;DHT22;61713;51.034;13.756;2022-07-10T12:26:36;16.90;84.30
73477;DHT22;61713;51.034;13.756;2022-07-10T12:29:03;16.90;84.70
73477;DHT22;61713;51.034;13.756;2022-07-10T12:31:31;17.00;84.50
73477;DHT22;61713;51.034;13.756;2022-07-10T12:34:05;17.10;81.80
73477;DHT22;61713;51.034;13.756;2022-07-10T12:36:51;17.00;80.60
73477;DHT22;61713;51.034;13.756;2022-07-10T12:39:19;17.30;79.80
73477;DHT22;61713;51.034;13.756;2022-07-10T12:42:04;17.50;79.40
73477;DHT22;61713;51.034;13.756;2022-07-10T12:44:40;17.80;78.90
73477;DHT22;61713;51.034;13.756;2022-07-10T12:47:08;17.50;79.00
73477;DHT22;61713;51.034;13.756;2022-07-10T12:49:53;17.50;79.10
73477;DHT22;61713;51.034;13.756;2022-07-10T12:52:29;17.70;78.70
73477;DHT22;61713;51.034;13.756;2022-07-10T12:55:12;17.90;78.10
73477;DHT22;61713;51.034;13.756;2022-07-10T13:00:14;18.30;79.10
73477;DHT22;61713;51.034;13.756;2022-07-10T13:02:40;18.20;81.20
73477;DHT22;61713;51.034;13.756;2022-07-10T13:05:05;18.20;82.00
73477;DHT22;61713;51.034;13.756;2022-07-10T13:07:35;18.30;82.90
73477;DHT22;61713;51.034;13.756;2022-07-10T13:10:04;19.70;78.10
73477;DHT22;61713;51.034;13.756;2022-07-10T13:12:29;19.70;73.40
73477;DHT22;61713;51.034;13.756;2022-07-10T13:14:55;19.60;75.50
73477;DHT22;61713;51.034;13.756;2022-07-10T13:17:21;19.60;73.80
73477;DHT22;61713;51.034;13.756;2022-07-10T13:19:46;20.30;71.20
73477;DHT22;61713;51.034;13.756;2022-07-10T13:22:12;20.30;70.70
73477;DHT22;61713;51.034;13.756;2022-07-10T13:24:37;20.00;72.30
73477;DHT22;61713;51.034;13.756;2022-07-10T13:27:03;19.50;71.20
73477;DHT22;61713;51.034;13.756;2022-07-10T13:29:29;19.80;70.50
73477;DHT22;61713;51.034;13.756;2022-07-10T13:31:54;20.40;68.00
73477;DHT22;61713;51.034;13.756;2022-07-10T13:34:20;19.60;69.20
73477;DHT22;61713;51.034;13.756;2022-07-10T13:36:45;19.70;69.20
73477;DHT22;61713;51.034;13.756;2022-07-10T13:39:11;19.50;70.20
73477;DHT22;61713;51.034;13.756;2022-07-10T13:41:36;19.30;71.00
73477;DHT22;61713;51.034;13.756;2022-07-10T13:44:02;19.00;70.70
73477;DHT22;61713;51.034;13.756;2022-07-10T13:46:27;19.10;71.50
73477;DHT22;61713;51.034;13.756;2022-07-10T13:48:53;19.10;71.80
73477;DHT22;61713;51.034;13.756;2022-07-10T13:51:18;18.90;70.60
73477;DHT22;61713;51.034;13.756;2022-07-10T13:53:44;18.80;70.80
73477;DHT22;61713;51.034;13.756;2022-07-10T13:56:10;18.90;70.80
73477;DHT22;61713;51.034;13.756;2022-07-10T13:58:35;18.70;69.50
73477;DHT22;61713;51.034;13.756;2022-07-10T14:01:02;18.60;70.70
73477;DHT22;61713;51.034;13.756;2022-07-10T14:03:29;18.40;71.10
73477;DHT22;61713;51.034;13.756;2022-07-10T14:05:56;18.20;71.50
73477;DHT22;61713;51.034;13.756;2022-07-10T14:08:21;18.20;71.20
73477;DHT22;61713;51.034;13.756;2022-07-10T14:10:47;18.30;71.60
73477;DHT22;61713;51.034;13.756;2022-07-10T14:13:12;18.50;71.00
73477;DHT22;61713;51.034;13.756;2022-07-10T14:15:38;18.70;71.10
73477;DHT22;61713;51.034;13.756;2022-07-10T14:18:03;18.90;70.90
73477;DHT22;61713;51.034;13.756;2022-07-10T14:20:30;19.00;69.80
73477;DHT22;61713;51.034;13.756;2022-07-10T14:23:16;19.10;69.90
73477;DHT22;61713;51.034;13.756;2022-07-10T14:25:42;19.40;70.10
73477;DHT22;61713;51.034;13.756;2022-07-10T14:28:07;19.80;68.50
73477;DHT22;61713;51.034;13.756;2022-07-10T14:30:32;19.70;69.00
73477;DHT22;61713;51.034;13.756;2022-07-10T14:32:58;19.60;70.00
73477;DHT22;61713;51.034;13.756;2022-07-10T14:35:23;19.40;69.90
73477;DHT22;61713;51.034;13.756;2022-07-10T14:37:49;19.40;70.40
73477;DHT22;61713;51.034;13.756;2022-07-10T14:40:14;19.40;69.40
73477;DHT22;61713;51.034;13.756;2022-07-10T14:42:40;19.50;70.90
73477;DHT22;61713;51.034;13.756;2022-07-10T14:45:06;19.50;70.60
73477;DHT22;61713;51.034;13.756;2022-07-10T14:47:31;19.60;70.20
73477;DHT22;61713;51.034;13.756;2022-07-10T14:49:58;19.10;71.10
73477;DHT22;61713;51.034;13.756;2022-07-10T14:52:24;18.90;72.00
73477;DHT22;61713;51.034;13.756;2022-07-10T14:54:51;18.80;71.90
73477;DHT22;61713;51.034;13.756;2022-07-10T14:57:16;18.80;71.20
73477;DHT22;61713;51.034;13.756;2022-07-10T14:59:42;18.80;71.20
73477;DHT22;61713;51.034;13.756;2022-07-10T15:02:07;19.00;70.10
73477;DHT22;61713;51.034;13.756;2022-07-10T15:04:33;18.90;69.50
73477;DHT22;61713;51.034;13.756;2022-07-10T15:06:58;18.70;69.40
73477;DHT22;61713;51.034;13.756;2022-07-10T15:09:24;18.80;70.00
73477;DHT22;61713;51.034;13.756;2022-07-10T15:11:49;18.90;69.70
73477;DHT22;61713;51.034;13.756;2022-07-10T15:14:16;19.00;69.40
73477;DHT22;61713;51.034;13.756;2022-07-10T15:16:42;19.00;69.10
73477;DHT22;61713;51.034;13.756;2022-07-10T15:19:08;19.00;69.20
73477;DHT22;61713;51.034;13.756;2022-07-10T15:21:35;19.10;70.10
73477;DHT22;61713;51.034;13.756;2022-07-10T15:24:01;19.20;69.70
73477;DHT22;61713;51.034;13.756;2022-07-10T15:26:26;19.30;69.70
73477;DHT22;61713;51.034;13.756;2022-07-10T15:28:51;19.10;70.20
73477;DHT22;61713;51.034;13.756;2022-07-10T15:31:17;19.00;70.70
73477;DHT22;61713;51.034;13.756;2022-07-10T15:33:43;19.80;68.50
73477;DHT22;61713;51.034;13.756;2022-07-10T15:36:10;19.90;68.30
73477;DHT22;61713;51.034;13.756;2022-07-10T15:38:36;21.10;64.80
73477;DHT22;61713;51.034;13.756;2022-07-10T15:41:02;22.50;61.10
73477;DHT22;61713;51.034;13.756;2022-07-10T15:43:27;22.10;60.00
73477;DHT22;61713;51.034;13.756;2022-07-10T15:45:54;21.70;62.80
73477;DHT22;61713;51.034;13.756;2022-07-10T15:48:20;21.00;63.70